Tupiratins, Brazil
Current Conditions -  °F | °C
As of 9:00 AM on Thursday 18 Dec 2014 (Local Time) from SBPJ Reporting Station
Broken Clouds Broken Clouds  
Wind Chill: 81°   Ceiling: 2500
Heat Index: 84°   Visibility: 6mi
Dew Point: 70°   Wind: 1mph
Humidity: 70%   Direction: 330°NNW
Pressure: 29.91"   Gusts: NA
Location:  8.39°S, 48.12°W
Report Text: SBPJ 181200Z 33001KT 9999 FEW015 BKN025 BKN090 27/21 Q1013
Loading
Personal Weather Stations






























Interactive Weather Map New forecast layout! Learn more

10-Day Weather Forecast

Advertisements
Track Severe Weather on mobile